Coalton, Kentucky
Current Conditions -  °F | °C
As of 7:51 AM on Thursday 23 Oct 2014 (Local Time) from KHTS Reporting Station
Overcast Overcast  
Wind Chill: 47°   Ceiling: 3700
Heat Index: 47°   Visibility: 10mi
Dew Point: 41°   Wind: 0mph
Humidity: 80%   Direction: NA
Pressure: 30.21"   Gusts: NA
Location:  38.2878°N, 82.7547°W
Report Text: KHTS 231151Z 00000KT 10SM OVC037 08/05 A3021 RMK AO2 SLP231 T00830050 10089 20078 50001
Loading
Personal Weather Stations






























Interactive Weather Map
Tropical Storm Tracking
New forecast layout! Learn more

10-Day Weather Forecast

Advertisements
Track Severe Weather on mobile